sensor_id;sensor_type;location;lat;lon;timestamp;pressure;altitude;pressure_sealevel;temperature;humidity
84821;BME280;75463;50.988;11.332;2024-01-30T00:01:52;100212.94;;;2.92;76.63
84821;BME280;75463;50.988;11.332;2024-01-30T00:04:18;100217.22;;;2.93;76.15
84821;BME280;75463;50.988;11.332;2024-01-30T00:06:44;100219.06;;;2.93;76.37
84821;BME280;75463;50.988;11.332;2024-01-30T00:09:09;100216.69;;;2.85;76.71
84821;BME280;75463;50.988;11.332;2024-01-30T00:11:36;100219.34;;;2.85;77.18
84821;BME280;75463;50.988;11.332;2024-01-30T00:14:01;100224.59;;;2.91;77.21
84821;BME280;75463;50.988;11.332;2024-01-30T00:16:28;100220.63;;;3.00;76.55
84821;BME280;75463;50.988;11.332;2024-01-30T00:18:53;100214.03;;;3.09;75.52
84821;BME280;75463;50.988;11.332;2024-01-30T00:21:20;100217.41;;;3.16;76.49
84821;BME280;75463;50.988;11.332;2024-01-30T00:23:45;100224.78;;;3.14;75.86
84821;BME280;75463;50.988;11.332;2024-01-30T00:26:10;100209.75;;;3.26;74.72
84821;BME280;75463;50.988;11.332;2024-01-30T00:28:39;100215.25;;;3.31;74.26
84821;BME280;75463;50.988;11.332;2024-01-30T00:31:04;100205.50;;;3.25;75.60
84821;BME280;75463;50.988;11.332;2024-01-30T00:33:30;100213.59;;;3.12;75.93
84821;BME280;75463;50.988;11.332;2024-01-30T00:35:56;100206.19;;;3.14;74.85
84821;BME280;75463;50.988;11.332;2024-01-30T00:38:21;100216.34;;;2.99;75.87
84821;BME280;75463;50.988;11.332;2024-01-30T00:40:47;100203.94;;;2.93;76.82
84821;BME280;75463;50.988;11.332;2024-01-30T00:43:13;100214.13;;;2.96;76.04
84821;BME280;75463;50.988;11.332;2024-01-30T00:45:38;100200.78;;;3.02;75.93
84821;BME280;75463;50.988;11.332;2024-01-30T00:48:03;100206.50;;;3.06;75.95
84821;BME280;75463;50.988;11.332;2024-01-30T00:50:29;100199.53;;;3.05;75.73
84821;BME280;75463;50.988;11.332;2024-01-30T00:52:54;100206.19;;;3.14;75.36
84821;BME280;75463;50.988;11.332;2024-01-30T00:55:20;100197.00;;;3.16;74.86
84821;BME280;75463;50.988;11.332;2024-01-30T00:57:45;100200.00;;;3.20;74.57
84821;BME280;75463;50.988;11.332;2024-01-30T01:00:11;100204.44;;;3.26;73.78
84821;BME280;75463;50.988;11.332;2024-01-30T01:02:37;100197.22;;;3.15;75.03
84821;BME280;75463;50.988;11.332;2024-01-30T01:05:04;100195.13;;;3.17;74.94
84821;BME280;75463;50.988;11.332;2024-01-30T01:07:30;100193.13;;;3.12;74.52
84821;BME280;75463;50.988;11.332;2024-01-30T01:09:55;100198.09;;;3.09;75.45
84821;BME280;75463;50.988;11.332;2024-01-30T01:12:21;100189.81;;;3.17;75.01
84821;BME280;75463;50.988;11.332;2024-01-30T01:14:46;100192.34;;;3.12;74.95
84821;BME280;75463;50.988;11.332;2024-01-30T01:17:11;100194.66;;;3.26;73.89
84821;BME280;75463;50.988;11.332;2024-01-30T01:19:37;100194.88;;;3.43;73.91
84821;BME280;75463;50.988;11.332;2024-01-30T01:22:02;100189.84;;;3.35;73.40
84821;BME280;75463;50.988;11.332;2024-01-30T01:24:30;100203.16;;;3.35;73.27
84821;BME280;75463;50.988;11.332;2024-01-30T01:26:55;100196.75;;;3.18;73.60
84821;BME280;75463;50.988;11.332;2024-01-30T01:29:22;100202.34;;;3.10;74.88
84821;BME280;75463;50.988;11.332;2024-01-30T01:31:53;100199.75;;;3.28;74.09
84821;BME280;75463;50.988;11.332;2024-01-30T01:34:19;100190.00;;;3.40;73.35
84821;BME280;75463;50.988;11.332;2024-01-30T01:36:44;100183.78;;;3.28;73.13
84821;BME280;75463;50.988;11.332;2024-01-30T01:39:09;100193.66;;;3.21;73.33
84821;BME280;75463;50.988;11.332;2024-01-30T01:41:35;100193.84;;;3.44;73.24
84821;BME280;75463;50.988;11.332;2024-01-30T01:44:01;100189.78;;;3.23;74.02
84821;BME280;75463;50.988;11.332;2024-01-30T01:46:27;100181.19;;;3.21;73.87
84821;BME280;75463;50.988;11.332;2024-01-30T01:48:55;100180.31;;;3.27;73.02
84821;BME280;75463;50.988;11.332;2024-01-30T01:51:21;100184.53;;;3.35;73.23
84821;BME280;75463;50.988;11.332;2024-01-30T01:53:48;100177.59;;;3.34;73.42
84821;BME280;75463;50.988;11.332;2024-01-30T01:56:13;100180.81;;;3.18;74.34
84821;BME280;75463;50.988;11.332;2024-01-30T01:58:40;100179.75;;;3.01;74.88
84821;BME280;75463;50.988;11.332;2024-01-30T02:01:07;100179.75;;;3.01;74.09
84821;BME280;75463;50.988;11.332;2024-01-30T02:03:34;100171.66;;;2.96;75.83
84821;BME280;75463;50.988;11.332;2024-01-30T02:05:59;100176.97;;;2.96;75.76
84821;BME280;75463;50.988;11.332;2024-01-30T02:08:25;100165.16;;;3.10;74.02
84821;BME280;75463;50.988;11.332;2024-01-30T02:10:51;100166.78;;;2.93;74.75
84821;BME280;75463;50.988;11.332;2024-01-30T02:13:16;100166.59;;;2.88;74.84
84821;BME280;75463;50.988;11.332;2024-01-30T02:15:41;100171.59;;;2.78;75.44
84821;BME280;75463;50.988;11.332;2024-01-30T02:18:07;100181.97;;;2.80;75.49
84821;BME280;75463;50.988;11.332;2024-01-30T02:20:34;100174.00;;;2.80;75.87
84821;BME280;75463;50.988;11.332;2024-01-30T02:23:00;100173.19;;;2.61;75.59
84821;BME280;75463;50.988;11.332;2024-01-30T02:25:38;100173.69;;;2.70;75.78
84821;BME280;75463;50.988;11.332;2024-01-30T02:28:04;100165.84;;;2.81;74.98
84821;BME280;75463;50.988;11.332;2024-01-30T02:30:29;100174.09;;;2.73;75.61
84821;BME280;75463;50.988;11.332;2024-01-30T02:32:54;100170.78;;;2.53;76.79
84821;BME280;75463;50.988;11.332;2024-01-30T02:35:20;100174.09;;;2.43;76.88
84821;BME280;75463;50.988;11.332;2024-01-30T02:37:45;100176.16;;;2.41;77.40
84821;BME280;75463;50.988;11.332;2024-01-30T02:40:10;100168.50;;;2.26;77.32
84821;BME280;75463;50.988;11.332;2024-01-30T02:42:36;100157.91;;;2.26;77.90
84821;BME280;75463;50.988;11.332;2024-01-30T02:45:01;100165.06;;;2.26;77.14
84821;BME280;75463;50.988;11.332;2024-01-30T02:47:26;100160.25;;;2.41;76.93
84821;BME280;75463;50.988;11.332;2024-01-30T02:49:51;100162.75;;;2.36;77.19
84821;BME280;75463;50.988;11.332;2024-01-30T02:52:17;100159.81;;;2.44;76.28
84821;BME280;75463;50.988;11.332;2024-01-30T02:54:42;100162.38;;;2.56;75.80
84821;BME280;75463;50.988;11.332;2024-01-30T02:57:07;100157.25;;;2.61;74.88
84821;BME280;75463;50.988;11.332;2024-01-30T02:59:33;100151.94;;;2.61;74.43
84821;BME280;75463;50.988;11.332;2024-01-30T03:02:01;100155.50;;;2.49;74.84
84821;BME280;75463;50.988;11.332;2024-01-30T03:04:26;100149.78;;;2.46;75.54
84821;BME280;75463;50.988;11.332;2024-01-30T03:06:51;100149.41;;;2.42;75.68
84821;BME280;75463;50.988;11.332;2024-01-30T03:09:17;100146.97;;;2.41;76.23
84821;BME280;75463;50.988;11.332;2024-01-30T03:11:43;100145.09;;;2.47;75.69
84821;BME280;75463;50.988;11.332;2024-01-30T03:14:08;100147.19;;;2.39;76.41
84821;BME280;75463;50.988;11.332;2024-01-30T03:16:36;100140.56;;;2.54;75.23
84821;BME280;75463;50.988;11.332;2024-01-30T03:19:02;100149.88;;;2.63;75.75
84821;BME280;75463;50.988;11.332;2024-01-30T03:21:28;100141.25;;;2.44;75.65
84821;BME280;75463;50.988;11.332;2024-01-30T03:23:54;100141.56;;;2.29;75.78
84821;BME280;75463;50.988;11.332;2024-01-30T03:26:19;100140.75;;;2.29;76.65
84821;BME280;75463;50.988;11.332;2024-01-30T03:28:44;100131.25;;;2.15;76.56
84821;BME280;75463;50.988;11.332;2024-01-30T03:31:10;100134.16;;;2.07;76.43
84821;BME280;75463;50.988;11.332;2024-01-30T03:33:36;100132.03;;;1.91;78.04
84821;BME280;75463;50.988;11.332;2024-01-30T03:36:05;100130.66;;;2.13;76.50
84821;BME280;75463;50.988;11.332;2024-01-30T03:38:30;100133.38;;;2.31;75.86
84821;BME280;75463;50.988;11.332;2024-01-30T03:40:58;100136.34;;;2.16;75.83
84821;BME280;75463;50.988;11.332;2024-01-30T03:43:23;100132.63;;;1.93;77.13
84821;BME280;75463;50.988;11.332;2024-01-30T03:45:49;100126.28;;;1.94;76.56
84821;BME280;75463;50.988;11.332;2024-01-30T03:48:14;100130.41;;;1.84;77.71
84821;BME280;75463;50.988;11.332;2024-01-30T03:50:39;100126.03;;;2.02;77.04
84821;BME280;75463;50.988;11.332;2024-01-30T03:53:04;100124.81;;;1.98;77.12
84821;BME280;75463;50.988;11.332;2024-01-30T03:55:30;100117.41;;;1.76;77.60
84821;BME280;75463;50.988;11.332;2024-01-30T03:57:55;100113.63;;;1.59;78.67
84821;BME280;75463;50.988;11.332;2024-01-30T04:00:20;100121.63;;;1.52;78.79
84821;BME280;75463;50.988;11.332;2024-01-30T04:02:46;100123.81;;;1.62;78.64
84821;BME280;75463;50.988;11.332;2024-01-30T04:05:11;100114.56;;;1.71;78.08
84821;BME280;75463;50.988;11.332;2024-01-30T04:07:36;100114.72;;;1.82;77.49
84821;BME280;75463;50.988;11.332;2024-01-30T04:10:02;100120.44;;;1.86;77.91
84821;BME280;75463;50.988;11.332;2024-01-30T04:12:31;100120.59;;;1.91;77.45
84821;BME280;75463;50.988;11.332;2024-01-30T04:14:56;100122.66;;;1.82;78.01
84821;BME280;75463;50.988;11.332;2024-01-30T04:17:21;100125.59;;;1.74;77.63
84821;BME280;75463;50.988;11.332;2024-01-30T04:19:46;100130.81;;;1.87;76.89
84821;BME280;75463;50.988;11.332;2024-01-30T04:22:12;100130.53;;;1.64;77.92
84821;BME280;75463;50.988;11.332;2024-01-30T04:24:37;100124.28;;;1.52;78.50
84821;BME280;75463;50.988;11.332;2024-01-30T04:27:03;100133.09;;;1.34;79.18
84821;BME280;75463;50.988;11.332;2024-01-30T04:29:28;100142.72;;;1.09;80.00
84821;BME280;75463;50.988;11.332;2024-01-30T04:31:53;100138.91;;;0.92;80.73
84821;BME280;75463;50.988;11.332;2024-01-30T04:34:19;100144.03;;;0.81;81.58
84821;BME280;75463;50.988;11.332;2024-01-30T04:36:44;100147.66;;;0.86;82.27
84821;BME280;75463;50.988;11.332;2024-01-30T04:39:10;100140.94;;;0.90;81.97
84821;BME280;75463;50.988;11.332;2024-01-30T04:41:35;100134.63;;;0.91;82.75
84821;BME280;75463;50.988;11.332;2024-01-30T04:44:01;100134.00;;;1.02;81.74
84821;BME280;75463;50.988;11.332;2024-01-30T04:46:26;100134.63;;;1.04;81.60
84821;BME280;75463;50.988;11.332;2024-01-30T04:48:51;100129.03;;;1.25;80.53
84821;BME280;75463;50.988;11.332;2024-01-30T04:51:17;100144.94;;;1.25;80.13
84821;BME280;75463;50.988;11.332;2024-01-30T04:53:42;100124.59;;;1.19;79.63
84821;BME280;75463;50.988;11.332;2024-01-30T04:56:07;100116.78;;;1.37;78.90
84821;BME280;75463;50.988;11.332;2024-01-30T04:58:33;100130.25;;;1.29;78.57
84821;BME280;75463;50.988;11.332;2024-01-30T05:00:58;100133.53;;;1.31;78.60
84821;BME280;75463;50.988;11.332;2024-01-30T05:03:23;100124.31;;;1.40;78.31
84821;BME280;75463;50.988;11.332;2024-01-30T05:05:49;100119.38;;;1.87;75.28
84821;BME280;75463;50.988;11.332;2024-01-30T05:08:14;100114.44;;;1.97;75.61
84821;BME280;75463;50.988;11.332;2024-01-30T05:10:40;100116.84;;;1.67;77.53
84821;BME280;75463;50.988;11.332;2024-01-30T05:13:05;100125.00;;;1.66;77.14
84821;BME280;75463;50.988;11.332;2024-01-30T05:15:30;100116.53;;;1.45;77.90
84821;BME280;75463;50.988;11.332;2024-01-30T05:17:56;100115.09;;;1.48;77.30
84821;BME280;75463;50.988;11.332;2024-01-30T05:20:21;100114.56;;;1.34;77.88
84821;BME280;75463;50.988;11.332;2024-01-30T05:22:47;100121.94;;;1.19;78.42
84821;BME280;75463;50.988;11.332;2024-01-30T05:25:12;100122.59;;;1.08;79.28
84821;BME280;75463;50.988;11.332;2024-01-30T05:27:38;100116.88;;;1.04;79.42
84821;BME280;75463;50.988;11.332;2024-01-30T05:30:07;100120.94;;;1.13;79.29
84821;BME280;75463;50.988;11.332;2024-01-30T05:32:33;100115.22;;;1.23;78.24
84821;BME280;75463;50.988;11.332;2024-01-30T05:34:58;100121.72;;;1.27;78.31
84821;BME280;75463;50.988;11.332;2024-01-30T05:37:23;100122.78;;;1.13;79.44
84821;BME280;75463;50.988;11.332;2024-01-30T05:39:49;100113.22;;;0.99;79.43
84821;BME280;75463;50.988;11.332;2024-01-30T05:42:14;100122.63;;;0.89;79.59
84821;BME280;75463;50.988;11.332;2024-01-30T05:44:42;100117.53;;;0.87;80.42
84821;BME280;75463;50.988;11.332;2024-01-30T05:47:07;100117.53;;;0.87;80.41
84821;BME280;75463;50.988;11.332;2024-01-30T05:49:32;100122.03;;;0.80;80.80
84821;BME280;75463;50.988;11.332;2024-01-30T05:51:58;100125.91;;;0.78;81.27
84821;BME280;75463;50.988;11.332;2024-01-30T05:54:23;100127.53;;;0.72;80.36
84821;BME280;75463;50.988;11.332;2024-01-30T05:56:48;100130.38;;;0.64;81.15
84821;BME280;75463;50.988;11.332;2024-01-30T05:59:14;100131.59;;;0.81;80.46
84821;BME280;75463;50.988;11.332;2024-01-30T06:01:45;100131.00;;;0.79;80.66
84821;BME280;75463;50.988;11.332;2024-01-30T06:04:11;100128.31;;;0.86;80.57
84821;BME280;75463;50.988;11.332;2024-01-30T06:06:36;100123.81;;;0.99;79.07
84821;BME280;75463;50.988;11.332;2024-01-30T06:09:02;100126.97;;;1.40;77.61
84821;BME280;75463;50.988;11.332;2024-01-30T06:11:27;100127.81;;;1.71;76.09
84821;BME280;75463;50.988;11.332;2024-01-30T06:13:53;100117.94;;;1.53;76.63
84821;BME280;75463;50.988;11.332;2024-01-30T06:16:18;100124.50;;;1.45;77.56
84821;BME280;75463;50.988;11.332;2024-01-30T06:18:46;100114.31;;;1.42;77.29
84821;BME280;75463;50.988;11.332;2024-01-30T06:21:11;100126.59;;;1.30;78.40
84821;BME280;75463;50.988;11.332;2024-01-30T06:23:36;100125.38;;;1.69;75.55
84821;BME280;75463;50.988;11.332;2024-01-30T06:26:02;100109.69;;;1.68;75.50
84821;BME280;75463;50.988;11.332;2024-01-30T06:28:27;100110.59;;;1.55;76.31
84821;BME280;75463;50.988;11.332;2024-01-30T06:30:52;100112.25;;;1.44;77.36
84821;BME280;75463;50.988;11.332;2024-01-30T06:33:18;100113.56;;;1.28;77.81
84821;BME280;75463;50.988;11.332;2024-01-30T06:35:43;100105.00;;;1.33;77.60
84821;BME280;75463;50.988;11.332;2024-01-30T06:38:11;100102.09;;;1.41;77.73
84821;BME280;75463;50.988;11.332;2024-01-30T06:40:36;100102.91;;;1.41;77.40
84821;BME280;75463;50.988;11.332;2024-01-30T06:43:03;100108.25;;;1.28;78.05
84821;BME280;75463;50.988;11.332;2024-01-30T06:45:29;100120.28;;;1.24;78.33
84821;BME280;75463;50.988;11.332;2024-01-30T06:47:54;100105.81;;;1.27;78.36
84821;BME280;75463;50.988;11.332;2024-01-30T06:50:19;100115.16;;;1.29;77.99
84821;BME280;75463;50.988;11.332;2024-01-30T06:52:45;100105.34;;;1.43;77.52
84821;BME280;75463;50.988;11.332;2024-01-30T06:55:10;100112.47;;;1.48;78.25
84821;BME280;75463;50.988;11.332;2024-01-30T06:57:36;100117.44;;;1.69;76.14
84821;BME280;75463;50.988;11.332;2024-01-30T07:00:02;100117.63;;;1.74;76.05
84821;BME280;75463;50.988;11.332;2024-01-30T07:02:27;100112.13;;;1.69;76.51
84821;BME280;75463;50.988;11.332;2024-01-30T07:04:52;100118.06;;;1.71;76.34
84821;BME280;75463;50.988;11.332;2024-01-30T07:07:18;100119.44;;;1.80;77.01
84821;BME280;75463;50.988;11.332;2024-01-30T07:09:43;100112.50;;;1.79;76.34
84821;BME280;75463;50.988;11.332;2024-01-30T07:12:08;100115.56;;;1.83;76.62
84821;BME280;75463;50.988;11.332;2024-01-30T07:14:34;100109.34;;;1.95;75.68
84821;BME280;75463;50.988;11.332;2024-01-30T07:16:59;100120.22;;;1.87;76.05
84821;BME280;75463;50.988;11.332;2024-01-30T07:19:24;100116.94;;;1.85;75.98
84821;BME280;75463;50.988;11.332;2024-01-30T07:21:50;100118.41;;;1.81;76.72
84821;BME280;75463;50.988;11.332;2024-01-30T07:24:15;100122.31;;;1.72;77.09
84821;BME280;75463;50.988;11.332;2024-01-30T07:26:40;100113.75;;;1.77;77.48
84821;BME280;75463;50.988;11.332;2024-01-30T07:29:06;100121.44;;;1.85;77.24
84821;BME280;75463;50.988;11.332;2024-01-30T07:31:31;100119.00;;;1.83;77.35
84821;BME280;75463;50.988;11.332;2024-01-30T07:33:56;100123.03;;;1.92;76.87
84821;BME280;75463;50.988;11.332;2024-01-30T07:36:22;100122.94;;;2.05;76.32
84821;BME280;75463;50.988;11.332;2024-01-30T07:38:47;100132.47;;;2.12;75.93
84821;BME280;75463;50.988;11.332;2024-01-30T07:41:15;100119.13;;;2.25;74.89
84821;BME280;75463;50.988;11.332;2024-01-30T07:43:41;100123.47;;;2.44;73.43
84821;BME280;75463;50.988;11.332;2024-01-30T07:46:06;100128.66;;;2.57;74.11
84821;BME280;75463;50.988;11.332;2024-01-30T07:48:33;100130.56;;;2.74;73.46
84821;BME280;75463;50.988;11.332;2024-01-30T07:50:59;100124.91;;;2.89;73.43
84821;BME280;75463;50.988;11.332;2024-01-30T07:53:24;100125.91;;;3.12;72.54
84821;BME280;75463;50.988;11.332;2024-01-30T07:55:50;100118.97;;;3.29;72.34
84821;BME280;75463;50.988;11.332;2024-01-30T07:58:15;100108.91;;;3.48;71.47
84821;BME280;75463;50.988;11.332;2024-01-30T08:00:41;100112.94;;;3.87;69.16
84821;BME280;75463;50.988;11.332;2024-01-30T08:03:06;100115.44;;;4.63;67.50
84821;BME280;75463;50.988;11.332;2024-01-30T08:05:31;100119.19;;;5.46;63.63
84821;BME280;75463;50.988;11.332;2024-01-30T08:07:57;100126.53;;;6.18;61.06
84821;BME280;75463;50.988;11.332;2024-01-30T08:10:22;100116.44;;;6.85;59.04
84821;BME280;75463;50.988;11.332;2024-01-30T08:12:50;100116.03;;;7.52;57.83
84821;BME280;75463;50.988;11.332;2024-01-30T08:15:16;100115.19;;;7.94;54.50
84821;BME280;75463;50.988;11.332;2024-01-30T08:17:41;100114.72;;;7.97;54.98
84821;BME280;75463;50.988;11.332;2024-01-30T08:20:07;100120.16;;;7.59;55.54
84821;BME280;75463;50.988;11.332;2024-01-30T08:22:33;100107.38;;;7.45;56.25
84821;BME280;75463;50.988;11.332;2024-01-30T08:24:59;100112.97;;;7.44;56.60
84821;BME280;75463;50.988;11.332;2024-01-30T08:27:24;100107.84;;;7.58;55.45
84821;BME280;75463;50.988;11.332;2024-01-30T08:29:49;100104.53;;;7.73;55.64
84821;BME280;75463;50.988;11.332;2024-01-30T08:32:15;100108.56;;;7.75;55.39
84821;BME280;75463;50.988;11.332;2024-01-30T08:34:40;100102.28;;;7.86;54.92
84821;BME280;75463;50.988;11.332;2024-01-30T08:37:06;100097.47;;;7.88;54.96
84821;BME280;75463;50.988;11.332;2024-01-30T08:39:31;100094.78;;;7.88;56.33
84821;BME280;75463;50.988;11.332;2024-01-30T08:41:56;100096.84;;;7.81;56.32
84821;BME280;75463;50.988;11.332;2024-01-30T08:44:22;100088.53;;;7.78;55.21
84821;BME280;75463;50.988;11.332;2024-01-30T08:46:47;100088.53;;;7.78;55.77
84821;BME280;75463;50.988;11.332;2024-01-30T08:49:13;100087.53;;;7.62;56.24
84821;BME280;75463;50.988;11.332;2024-01-30T08:51:41;100092.66;;;7.43;56.06
84821;BME280;75463;50.988;11.332;2024-01-30T08:54:06;100093.53;;;7.27;57.12
84821;BME280;75463;50.988;11.332;2024-01-30T08:56:32;100094.75;;;7.41;56.31
84821;BME280;75463;50.988;11.332;2024-01-30T08:58:57;100093.63;;;7.58;56.32
84821;BME280;75463;50.988;11.332;2024-01-30T09:01:23;100094.91;;;7.77;56.96
84821;BME280;75463;50.988;11.332;2024-01-30T09:03:48;100084.66;;;7.90;55.91
84821;BME280;75463;50.988;11.332;2024-01-30T09:06:13;100081.63;;;8.08;55.56
84821;BME280;75463;50.988;11.332;2024-01-30T09:08:39;100077.34;;;8.33;54.92
84821;BME280;75463;50.988;11.332;2024-01-30T09:11:14;100090.56;;;8.45;54.20
84821;BME280;75463;50.988;11.332;2024-01-30T09:13:40;100085.84;;;8.56;54.54
84821;BME280;75463;50.988;11.332;2024-01-30T09:16:06;100088.44;;;8.78;54.54
84821;BME280;75463;50.988;11.332;2024-01-30T09:18:32;100086.81;;;8.82;54.79
84821;BME280;75463;50.988;11.332;2024-01-30T09:20:57;100089.03;;;8.85;53.80
84821;BME280;75463;50.988;11.332;2024-01-30T09:23:23;100083.88;;;8.83;53.60
84821;BME280;75463;50.988;11.332;2024-01-30T09:25:48;100084.28;;;8.60;54.18
84821;BME280;75463;50.988;11.332;2024-01-30T09:28:14;100084.13;;;8.46;55.53
84821;BME280;75463;50.988;11.332;2024-01-30T09:30:39;100082.13;;;8.31;55.88
84821;BME280;75463;50.988;11.332;2024-01-30T09:33:06;100089.88;;;8.28;56.04
84821;BME280;75463;50.988;11.332;2024-01-30T09:35:31;100091.69;;;8.22;55.97
84821;BME280;75463;50.988;11.332;2024-01-30T09:37:57;100078.03;;;8.24;56.38
84821;BME280;75463;50.988;11.332;2024-01-30T09:40:22;100082.97;;;8.32;56.24
84821;BME280;75463;50.988;11.332;2024-01-30T09:42:50;100080.03;;;8.33;56.46
84821;BME280;75463;50.988;11.332;2024-01-30T09:45:17;100082.44;;;8.35;57.09
84821;BME280;75463;50.988;11.332;2024-01-30T09:47:44;100075.16;;;8.61;55.63
84821;BME280;75463;50.988;11.332;2024-01-30T09:50:11;100075.47;;;8.70;56.35
84821;BME280;75463;50.988;11.332;2024-01-30T09:52:37;100078.50;;;8.78;55.33
84821;BME280;75463;50.988;11.332;2024-01-30T09:55:03;100073.69;;;8.80;55.48
84821;BME280;75463;50.988;11.332;2024-01-30T09:57:28;100074.78;;;8.84;56.08
84821;BME280;75463;50.988;11.332;2024-01-30T09:59:54;100073.75;;;8.90;56.02
84821;BME280;75463;50.988;11.332;2024-01-30T10:02:20;100077.03;;;8.97;56.01
84821;BME280;75463;50.988;11.332;2024-01-30T10:04:50;100078.72;;;9.08;56.10
84821;BME280;75463;50.988;11.332;2024-01-30T10:07:19;100081.25;;;9.34;54.87
84821;BME280;75463;50.988;11.332;2024-01-30T10:09:45;100075.16;;;9.44;55.30
84821;BME280;75463;50.988;11.332;2024-01-30T10:12:11;100073.16;;;9.90;54.28
84821;BME280;75463;50.988;11.332;2024-01-30T10:14:40;100075.13;;;10.54;52.00
84821;BME280;75463;50.988;11.332;2024-01-30T10:17:07;100063.84;;;10.82;51.76
84821;BME280;75463;50.988;11.332;2024-01-30T10:19:33;100061.31;;;11.25;51.00
84821;BME280;75463;50.988;11.332;2024-01-30T10:22:00;100065.03;;;11.48;50.03
84821;BME280;75463;50.988;11.332;2024-01-30T10:24:26;100058.69;;;11.83;49.04
84821;BME280;75463;50.988;11.332;2024-01-30T10:26:52;100061.06;;;12.32;47.41
84821;BME280;75463;50.988;11.332;2024-01-30T10:29:18;100056.75;;;12.64;47.09
84821;BME280;75463;50.988;11.332;2024-01-30T10:31:43;100055.59;;;12.75;46.64
84821;BME280;75463;50.988;11.332;2024-01-30T10:34:08;100046.13;;;12.45;47.29
84821;BME280;75463;50.988;11.332;2024-01-30T10:36:39;100058.19;;;12.19;48.27
84821;BME280;75463;50.988;11.332;2024-01-30T10:39:06;100048.69;;;11.83;49.24
84821;BME280;75463;50.988;11.332;2024-01-30T10:41:43;100053.06;;;11.79;49.95
84821;BME280;75463;50.988;11.332;2024-01-30T10:44:10;100052.44;;;11.92;50.02
84821;BME280;75463;50.988;11.332;2024-01-30T10:46:38;100053.47;;;11.96;50.90
84821;BME280;75463;50.988;11.332;2024-01-30T10:49:05;100047.53;;;11.99;51.27
84821;BME280;75463;50.988;11.332;2024-01-30T10:51:32;100044.41;;;11.82;51.97
84821;BME280;75463;50.988;11.332;2024-01-30T10:53:58;100048.41;;;11.90;51.95
84821;BME280;75463;50.988;11.332;2024-01-30T10:56:24;100043.47;;;12.01;51.85
84821;BME280;75463;50.988;11.332;2024-01-30T10:58:53;100043.00;;;11.90;52.56
84821;BME280;75463;50.988;11.332;2024-01-30T11:01:20;100036.81;;;11.89;52.70
84821;BME280;75463;50.988;11.332;2024-01-30T11:03:51;100036.75;;;11.99;52.94
84821;BME280;75463;50.988;11.332;2024-01-30T11:06:17;100043.72;;;12.05;52.23
84821;BME280;75463;50.988;11.332;2024-01-30T11:08:45;100043.84;;;12.23;52.43
84821;BME280;75463;50.988;11.332;2024-01-30T11:11:11;100042.41;;;12.36;51.99
84821;BME280;75463;50.988;11.332;2024-01-30T11:13:37;100037.22;;;12.77;50.72
84821;BME280;75463;50.988;11.332;2024-01-30T11:16:05;100038.91;;;12.97;51.16
84821;BME280;75463;50.988;11.332;2024-01-30T11:18:32;100037.69;;;13.36;50.08
84821;BME280;75463;50.988;11.332;2024-01-30T11:21:00;100026.88;;;13.36;49.15
84821;BME280;75463;50.988;11.332;2024-01-30T11:23:27;100027.13;;;13.16;49.94
84821;BME280;75463;50.988;11.332;2024-01-30T11:25:54;100020.09;;;13.15;49.53
84821;BME280;75463;50.988;11.332;2024-01-30T11:28:23;100024.22;;;12.84;50.90
84821;BME280;75463;50.988;11.332;2024-01-30T11:30:48;100025.78;;;12.90;50.88
84821;BME280;75463;50.988;11.332;2024-01-30T11:33:29;100017.38;;;12.92;50.83
84821;BME280;75463;50.988;11.332;2024-01-30T11:35:57;100015.34;;;12.74;51.44
84821;BME280;75463;50.988;11.332;2024-01-30T11:38:24;100019.97;;;12.73;51.56
84821;BME280;75463;50.988;11.332;2024-01-30T11:40:51;100016.22;;;12.69;51.70
84821;BME280;75463;50.988;11.332;2024-01-30T11:43:16;100004.50;;;12.55;52.56
84821;BME280;75463;50.988;11.332;2024-01-30T11:45:42;100006.19;;;12.47;52.54
84821;BME280;75463;50.988;11.332;2024-01-30T11:48:11;100008.19;;;12.64;52.37
84821;BME280;75463;50.988;11.332;2024-01-30T11:50:38;100009.72;;;12.75;52.39
84821;BME280;75463;50.988;11.332;2024-01-30T11:53:04;100000.50;;;12.76;52.09
84821;BME280;75463;50.988;11.332;2024-01-30T11:55:30;99996.09;;;12.85;51.94
84821;BME280;75463;50.988;11.332;2024-01-30T11:57:57;99992.34;;;13.09;50.87
84821;BME280;75463;50.988;11.332;2024-01-30T12:00:22;100000.31;;;13.19;50.76
84821;BME280;75463;50.988;11.332;2024-01-30T12:02:55;99992.16;;;13.48;50.42
84821;BME280;75463;50.988;11.332;2024-01-30T12:05:27;99991.59;;;13.46;50.61
84821;BME280;75463;50.988;11.332;2024-01-30T12:07:53;99996.25;;;13.63;50.09
84821;BME280;75463;50.988;11.332;2024-01-30T12:10:19;99994.63;;;13.62;50.04
84821;BME280;75463;50.988;11.332;2024-01-30T12:12:49;99995.47;;;13.63;50.25
84821;BME280;75463;50.988;11.332;2024-01-30T12:15:15;99991.06;;;13.67;50.52
84821;BME280;75463;50.988;11.332;2024-01-30T12:17:41;99987.38;;;13.40;51.38
84821;BME280;75463;50.988;11.332;2024-01-30T12:20:11;99990.63;;;13.18;52.01
84821;BME280;75463;50.988;11.332;2024-01-30T12:22:39;99994.41;;;12.94;52.09
84821;BME280;75463;50.988;11.332;2024-01-30T12:25:08;99988.84;;;12.81;52.29
84821;BME280;75463;50.988;11.332;2024-01-30T12:27:33;99989.69;;;12.76;52.50
84821;BME280;75463;50.988;11.332;2024-01-30T12:29:59;99991.63;;;12.71;53.02
84821;BME280;75463;50.988;11.332;2024-01-30T12:32:24;99978.00;;;12.62;53.57
84821;BME280;75463;50.988;11.332;2024-01-30T12:34:49;99985.25;;;12.62;53.51
84821;BME280;75463;50.988;11.332;2024-01-30T12:37:15;99979.84;;;12.62;53.84
84821;BME280;75463;50.988;11.332;2024-01-30T12:39:45;99976.31;;;12.66;53.58
84821;BME280;75463;50.988;11.332;2024-01-30T12:42:10;99973.47;;;12.53;53.59